Time;durP1;ratioP1;P1;durP2;ratioP2;P2;SDS_P1;SDS_P2;PMS_P1;PMS_P2;Temp;Humidity;BMP_temperature;BMP_pressure;BME280_temperature;BME280_humidity;BME280_pressure;Samples;Min_cycle;Max_cycle;Signal;HPM_P1;HPM_P2
2023/09/23 05:38:36;;;;;;;0.00;0.00;;;22.60;98.70;;;;;;5066162;27;20385;-82
2023/09/23 05:41:03;;;;;;;0.00;0.00;;;22.70;98.90;;;;;;5076809;28;20424;-81
2023/09/23 05:43:30;;;;;;;0.00;0.00;;;22.80;99.00;;;;;;5098788;28;20500;-81
2023/09/23 05:45:56;;;;;;;0.00;0.00;;;22.90;98.10;;;;;;5049186;28;20980;-81
2023/09/23 05:48:23;;;;;;;0.00;0.00;;;23.00;98.10;;;;;;5077408;28;21285;-81
2023/09/23 05:50:50;;;;;;;0.00;0.00;;;23.10;97.90;;;;;;5062546;28;20409;-81
2023/09/23 05:53:16;;;;;;;0.00;0.00;;;23.20;97.30;;;;;;5063557;28;20478;-78
2023/09/23 05:55:46;;;;;;;0.00;0.00;;;23.30;97.60;;;;;;5040909;28;20773;-78
2023/09/23 05:58:13;;;;;;;0.00;0.00;;;23.50;97.30;;;;;;5096295;28;20651;-78
2023/09/23 06:00:40;;;;;;;0.00;0.00;;;23.60;97.30;;;;;;5055014;28;20497;-78
2023/09/23 06:03:06;;;;;;;0.00;0.00;;;23.70;97.20;;;;;;5064559;28;20473;-78
2023/09/23 06:05:32;;;;;;;0.00;0.00;;;23.80;97.20;;;;;;5060419;28;20409;-80
2023/09/23 06:07:58;;;;;;;0.00;0.00;;;23.80;97.00;;;;;;5066042;28;20419;-83
2023/09/23 06:10:24;;;;;;;0.00;0.00;;;23.90;96.20;;;;;;5068999;28;21030;-80
2023/09/23 06:12:51;;;;;;;0.00;0.00;;;24.00;96.30;;;;;;5098848;28;20497;-78
2023/09/23 06:15:17;;;;;;;0.00;0.00;;;24.10;96.90;;;;;;5077287;28;20404;-80
2023/09/23 06:17:43;;;;;;;0.00;0.00;;;24.20;96.60;;;;;;5062398;28;20420;-79
2023/09/23 06:20:11;;;;;;;0.00;0.00;;;24.40;96.40;;;;;;5058776;28;20425;-79
2023/09/23 06:22:37;;;;;;;0.00;0.00;;;24.40;96.70;;;;;;5063926;28;20501;-80
2023/09/23 18:52:31;;;;;;;0.00;0.00;;;23.60;99.90;;;;;;5069260;27;20400;-81
2023/09/23 18:55:04;;;;;;;0.00;0.00;;;23.60;99.90;;;;;;5059691;28;20413;-81
2023/09/23 18:57:31;;;;;;;0.00;0.00;;;23.60;99.90;;;;;;5035201;28;20768;-81
2023/09/23 18:59:58;;;;;;;0.00;0.00;;;23.70;99.90;;;;;;5040531;28;20415;-81
2023/09/23 19:02:29;;;;;;;0.00;0.00;;;23.80;99.90;;;;;;5041318;28;20411;-83
2023/09/23 19:04:56;;;;;;;0.00;0.00;;;23.80;99.90;;;;;;5040098;28;20468;-84
2023/09/23 19:07:23;;;;;;;0.00;0.00;;;23.80;99.90;;;;;;5042497;28;20426;-81
2023/09/23 19:09:51;;;;;;;0.00;0.00;;;23.80;99.90;;;;;;5046559;28;20413;-82
2023/09/23 19:12:17;;;;;;;0.00;0.00;;;23.80;99.90;;;;;;5061532;28;20487;-82
2023/09/23 19:14:43;;;;;;;0.00;0.00;;;23.90;99.90;;;;;;5041195;28;20768;-81
2023/09/23 19:17:10;;;;;;;0.00;0.00;;;23.90;99.90;;;;;;5060776;28;21104;-82
2023/09/23 19:19:37;;;;;;;0.00;0.00;;;23.90;99.90;;;;;;5045310;28;21157;-81
2023/09/23 19:22:04;;;;;;;0.00;0.00;;;24.00;99.90;;;;;;5076096;28;20410;-81
2023/09/23 19:24:30;;;;;;;0.00;0.00;;;24.00;99.90;;;;;;5056990;28;20419;-81
2023/09/23 19:26:57;;;;;;;0.00;0.00;;;24.10;99.90;;;;;;5056555;28;20792;-81
2023/09/23 19:29:23;;;;;;;0.00;0.00;;;24.20;99.90;;;;;;5073087;28;20516;-82
2023/09/23 19:31:50;;;;;;;0.00;0.00;;;24.30;99.90;;;;;;5041457;28;20975;-81
2023/09/23 19:34:16;;;;;;;0.00;0.00;;;24.30;99.90;;;;;;5057523;28;21196;-80
2023/09/23 19:36:43;;;;;;;0.00;0.00;;;24.30;99.90;;;;;;5046370;28;20497;-80
2023/09/23 19:39:14;;;;;;;0.00;0.00;;;24.40;99.90;;;;;;5044986;28;20457;-81
2023/09/23 19:41:40;;;;;;;0.00;0.00;;;24.30;99.90;;;;;;5074230;28;20444;-81
2023/09/23 19:44:06;;;;;;;0.00;0.00;;;24.30;99.90;;;;;;5041008;28;20472;-79
2023/09/23 19:46:33;;;;;;;0.00;0.00;;;24.10;99.90;;;;;;5037429;28;20418;-80
2023/09/23 19:48:59;;;;;;;0.00;0.00;;;24.10;99.90;;;;;;5040973;28;20911;-78
2023/09/23 19:51:28;;;;;;;0.00;0.00;;;23.90;99.90;;;;;;5070534;28;20974;-79
2023/09/23 19:53:55;;;;;;;0.00;0.00;;;23.90;99.90;;;;;;5044292;28;21319;-81
2023/09/23 19:56:21;;;;;;;0.00;0.00;;;23.80;99.90;;;;;;5041379;28;20476;-77
2023/09/23 19:58:48;;;;;;;0.00;0.00;;;23.70;99.90;;;;;;5041351;28;20445;-79
2023/09/23 20:01:14;;;;;;;0.00;0.00;;;23.60;99.90;;;;;;5043931;28;20414;-79
2023/09/23 20:03:41;;;;;;;0.00;0.00;;;23.60;99.90;;;;;;5057506;28;21116;-79
2023/09/23 20:06:09;;;;;;;0.00;0.00;;;23.60;99.90;;;;;;5041969;28;20457;-80
2023/09/23 20:08:36;;;;;;;0.00;0.00;;;23.50;99.90;;;;;;5043313;28;20510;-79
2023/09/23 20:11:04;;;;;;;0.00;0.00;;;23.40;99.90;;;;;;5028250;28;20514;-81
2023/09/23 20:13:31;;;;;;;0.00;0.00;;;23.30;99.90;;;;;;5022944;28;20480;-79
2023/09/23 20:15:58;;;;;;;0.00;0.00;;;23.20;99.90;;;;;;5025894;28;20506;-79
2023/09/23 20:18:24;;;;;;;0.00;0.00;;;23.20;99.90;;;;;;5027263;28;20504;-79
2023/09/23 20:20:51;;;;;;;0.00;0.00;;;23.10;99.90;;;;;;5028893;28;20506;-80
2023/09/23 20:23:17;;;;;;;0.00;0.00;;;23.10;99.90;;;;;;5021493;28;20472;-78
2023/09/23 20:25:48;;;;;;;0.00;0.00;;;23.10;99.90;;;;;;5030097;28;20415;-78
2023/09/23 20:28:17;;;;;;;0.00;0.00;;;23.10;99.90;;;;;;5042120;28;20426;-79
2023/09/23 20:30:48;;;;;;;0.00;0.00;;;23.20;99.90;;;;;;5029374;28;20521;-79
2023/09/23 20:33:17;;;;;;;0.00;0.00;;;23.20;99.90;;;;;;5040730;28;20895;-78
2023/09/23 20:35:44;;;;;;;0.00;0.00;;;23.20;99.90;;;;;;5027685;28;20527;-78
2023/09/23 20:38:16;;;;;;;0.00;0.00;;;23.20;99.90;;;;;;5035420;28;21046;-78
2023/09/23 20:40:43;;;;;;;0.00;0.00;;;23.20;99.90;;;;;;5064630;28;20419;-78
2023/09/23 20:43:10;;;;;;;0.00;0.00;;;23.30;99.90;;;;;;5060257;28;20423;-78
2023/09/23 20:45:40;;;;;;;0.00;0.00;;;23.30;99.90;;;;;;5027471;28;20431;-79
2023/09/23 20:48:08;;;;;;;0.00;0.00;;;23.30;99.90;;;;;;5031204;28;20426;-78
2023/09/23 20:50:37;;;;;;;0.00;0.00;;;23.30;99.90;;;;;;5060102;28;20434;-78
2023/09/23 20:53:08;;;;;;;0.00;0.00;;;23.30;99.90;;;;;;5044455;28;20418;-78
2023/09/23 20:55:35;;;;;;;0.00;0.00;;;23.40;99.90;;;;;;5058075;28;21150;-78
2023/09/23 20:58:05;;;;;;;0.00;0.00;;;23.40;99.90;;;;;;5036490;28;20427;-78
2023/09/23 21:00:35;;;;;;;0.00;0.00;;;23.40;99.90;;;;;;5044995;28;20501;-77
2023/09/23 21:03:03;;;;;;;0.00;0.00;;;23.50;99.90;;;;;;5054649;28;20424;-77
2023/09/23 21:05:29;;;;;;;0.00;0.00;;;23.50;99.90;;;;;;5025282;28;20415;-77
2023/09/23 21:07:56;;;;;;;0.00;0.00;;;23.40;99.90;;;;;;5059910;28;20434;-79
2023/09/23 21:10:23;;;;;;;0.00;0.00;;;23.50;99.90;;;;;;5037165;28;20419;-81
2023/09/23 21:12:51;;;;;;;0.00;0.00;;;23.50;99.90;;;;;;5052504;28;21012;-81
2023/09/23 21:15:18;;;;;;;0.00;0.00;;;23.40;99.90;;;;;;5031602;28;20924;-82
2023/09/23 21:17:46;;;;;;;0.00;0.00;;;23.40;99.90;;;;;;5044449;28;20419;-82
2023/09/23 21:20:14;;;;;;;0.00;0.00;;;23.40;99.90;;;;;;5024092;28;20514;-82
2023/09/23 21:22:42;;;;;;;0.00;0.00;;;23.40;99.90;;;;;;5020937;28;20421;-81
2023/09/23 21:25:10;;;;;;;0.00;0.00;;;23.40;99.90;;;;;;5022693;28;20411;-78
2023/09/23 21:27:36;;;;;;;0.00;0.00;;;23.40;99.90;;;;;;5044341;28;20482;-81
2023/09/23 21:30:04;;;;;;;0.00;0.00;;;23.40;99.90;;;;;;5057395;28;20407;-80
2023/09/23 21:32:31;;;;;;;0.00;0.00;;;23.40;99.90;;;;;;5022310;28;20450;-79
2023/09/23 21:34:57;;;;;;;0.00;0.00;;;23.40;99.90;;;;;;5027829;28;20833;-79
2023/09/23 21:37:24;;;;;;;0.00;0.00;;;23.30;99.90;;;;;;5029012;28;20415;-78
2023/09/23 21:39:52;;;;;;;0.00;0.00;;;23.30;99.90;;;;;;5061979;28;20439;-79
2023/09/23 21:42:19;;;;;;;0.00;0.00;;;23.30;99.90;;;;;;5053624;28;20415;-79
2023/09/23 21:44:48;;;;;;;0.00;0.00;;;23.40;99.90;;;;;;5008630;28;20497;-80
2023/09/23 21:47:16;;;;;;;0.00;0.00;;;23.40;99.90;;;;;;5037072;28;20869;-79
2023/09/23 21:49:44;;;;;;;0.00;0.00;;;23.40;99.90;;;;;;5038635;28;20785;-80
2023/09/23 21:52:11;;;;;;;0.00;0.00;;;23.40;99.90;;;;;;5045697;28;20808;-79
2023/09/23 21:54:37;;;;;;;0.00;0.00;;;23.40;99.90;;;;;;5059065;28;20449;-80
2023/09/23 21:57:04;;;;;;;0.00;0.00;;;23.30;99.90;;;;;;5026871;28;20445;-80
2023/09/23 21:59:30;;;;;;;0.00;0.00;;;23.40;99.90;;;;;;5045419;28;20453;-80
2023/09/23 22:01:56;;;;;;;0.00;0.00;;;23.40;99.90;;;;;;5054564;28;20420;-80
2023/09/23 22:04:23;;;;;;;0.00;0.00;;;23.30;99.90;;;;;;5046041;28;20483;-80
2023/09/23 22:06:50;;;;;;;0.00;0.00;;;23.40;99.90;;;;;;5045218;28;21247;-79
2023/09/23 22:09:18;;;;;;;0.00;0.00;;;23.40;99.90;;;;;;5048896;28;20425;-79
2023/09/23 22:11:47;;;;;;;0.00;0.00;;;23.40;99.90;;;;;;5027003;28;20516;-79
2023/09/23 22:14:13;;;;;;;0.00;0.00;;;23.40;99.90;;;;;;5044990;28;20432;-79
2023/09/23 22:16:40;;;;;;;0.00;0.00;;;23.40;99.70;;;;;;5046299;28;20457;-78
2023/09/23 22:19:06;;;;;;;0.00;0.00;;;23.40;99.70;;;;;;5062549;28;20488;-78
2023/09/23 22:21:36;;;;;;;0.00;0.00;;;23.40;99.60;;;;;;5060381;28;20471;-79
2023/09/23 22:24:07;;;;;;;0.00;0.00;;;23.40;99.30;;;;;;5043927;28;20430;-78
2023/09/23 22:26:34;;;;;;;0.00;0.00;;;23.40;99.60;;;;;;5029851;28;20459;-77
2023/09/23 22:29:02;;;;;;;0.00;0.00;;;23.30;99.40;;;;;;5027770;28;20417;-77
2023/09/23 22:31:28;;;;;;;0.00;0.00;;;23.40;99.50;;;;;;5045487;28;21142;-77
2023/09/23 22:33:55;;;;;;;0.00;0.00;;;23.40;99.10;;;;;;5041475;28;20904;-78
2023/09/23 22:36:22;;;;;;;0.00;0.00;;;23.30;99.20;;;;;;5053754;28;20402;-77
2023/09/23 22:38:48;;;;;;;0.00;0.00;;;23.30;99.20;;;;;;5047102;28;21160;-77
2023/09/23 22:41:14;;;;;;;0.00;0.00;;;23.40;99.20;;;;;;5049355;28;20430;-77
2023/09/23 22:43:40;;;;;;;0.00;0.00;;;23.30;99.20;;;;;;5048316;28;20985;-77
2023/09/23 22:46:07;;;;;;;0.00;0.00;;;23.40;99.30;;;;;;5014341;28;20411;-77
2023/09/23 22:48:33;;;;;;;0.00;0.00;;;23.40;99.30;;;;;;5032287;28;20494;-77
2023/09/23 22:51:01;;;;;;;0.00;0.00;;;23.40;99.00;;;;;;5050093;28;20421;-77
2023/09/23 22:53:27;;;;;;;0.00;0.00;;;23.30;99.10;;;;;;5029280;28;20896;-78
2023/09/23 22:55:55;;;;;;;0.00;0.00;;;23.30;99.10;;;;;;5026939;28;20409;-77
2023/09/23 22:58:21;;;;;;;0.00;0.00;;;23.30;98.90;;;;;;5048310;28;20459;-77
2023/09/23 23:00:48;;;;;;;0.00;0.00;;;23.30;99.00;;;;;;5063369;28;20802;-77
2023/09/23 23:03:14;;;;;;;0.00;0.00;;;23.30;99.10;;;;;;5047631;28;20527;-77
2023/09/23 23:05:40;;;;;;;0.00;0.00;;;23.30;99.20;;;;;;5036647;28;20421;-79
2023/09/23 23:08:07;;;;;;;0.00;0.00;;;23.30;99.20;;;;;;5048074;28;20775;-78
2023/09/23 23:10:35;;;;;;;0.00;0.00;;;23.30;99.10;;;;;;5029496;28;20429;-78
2023/09/23 23:13:01;;;;;;;0.00;0.00;;;23.30;99.10;;;;;;5027594;28;20405;-79
2023/09/23 23:15:28;;;;;;;0.00;0.00;;;23.30;99.10;;;;;;5056998;28;20415;-79
2023/09/23 23:17:54;;;;;;;0.00;0.00;;;23.30;99.20;;;;;;5047739;28;20826;-80
2023/09/23 23:20:24;;;;;;;0.00;0.00;;;23.30;99.20;;;;;;5024279;28;20914;-79
2023/09/23 23:22:52;;;;;;;0.00;0.00;;;23.30;99.20;;;;;;5047057;28;20898;-80
2023/09/23 23:25:18;;;;;;;0.00;0.00;;;23.30;99.20;;;;;;5026457;28;20409;-80
2023/09/23 23:27:46;;;;;;;0.00;0.00;;;23.30;99.20;;;;;;5046827;28;20405;-79
2023/09/23 23:30:14;;;;;;;0.00;0.00;;;23.30;99.20;;;;;;5046326;28;20475;-80
2023/09/23 23:32:40;;;;;;;0.00;0.00;;;23.30;99.30;;;;;;5057413;28;20409;-80
2023/09/23 23:35:07;;;;;;;0.00;0.00;;;23.30;99.10;;;;;;5046628;28;20409;-80
2023/09/23 23:37:36;;;;;;;0.00;0.00;;;23.30;99.10;;;;;;5047282;28;20436;-80
2023/09/23 23:40:07;;;;;;;0.00;0.00;;;23.30;99.20;;;;;;5045619;28;20439;-80
2023/09/23 23:42:36;;;;;;;0.00;0.00;;;23.30;99.00;;;;;;5045870;28;20461;-80
2023/09/23 23:45:03;;;;;;;0.00;0.00;;;23.30;99.10;;;;;;5030383;28;20424;-80
2023/09/23 23:47:29;;;;;;;0.00;0.00;;;23.30;99.20;;;;;;5060408;28;20417;-80
2023/09/23 23:49:58;;;;;;;0.00;0.00;;;23.30;99.20;;;;;;5049375;28;20471;-80
2023/09/23 23:52:29;;;;;;;0.00;0.00;;;23.30;99.20;;;;;;5049807;28;20428;-80
2023/09/23 23:54:57;;;;;;;0.00;0.00;;;23.30;99.10;;;;;;5047935;28;21199;-79
2023/09/23 23:57:24;;;;;;;0.00;0.00;;;23.30;99.30;;;;;;5045298;28;20415;-79
2023/09/23 23:59:52;;;;;;;0.00;0.00;;;23.30;99.30;;;;;;5050211;28;20420;-80
